sensor_id;sensor_type;location;lat;lon;timestamp;P1;durP1;ratioP1;P2;durP2;ratioP2
74538;SDS011;66042;51.090;-115.340;2023-04-01T00:00:49;7.70;;;0.90;;
74538;SDS011;66042;51.090;-115.340;2023-04-01T00:03:21;3.90;;;0.80;;
74538;SDS011;66042;51.090;-115.340;2023-04-01T00:05:49;1.50;;;0.70;;
74538;SDS011;66042;51.090;-115.340;2023-04-01T00:08:17;2.90;;;1.00;;
74538;SDS011;66042;51.090;-115.340;2023-04-01T00:10:44;4.30;;;0.90;;
74538;SDS011;66042;51.090;-115.340;2023-04-01T00:13:12;8.70;;;2.40;;
74538;SDS011;66042;51.090;-115.340;2023-04-01T00:15:41;13.70;;;2.20;;
74538;SDS011;66042;51.090;-115.340;2023-04-01T00:18:09;6.70;;;2.20;;
74538;SDS011;66042;51.090;-115.340;2023-04-01T00:20:37;6.00;;;0.70;;
74538;SDS011;66042;51.090;-115.340;2023-04-01T00:23:04;1.40;;;0.80;;
74538;SDS011;66042;51.090;-115.340;2023-04-01T00:25:31;4.10;;;0.60;;
74538;SDS011;66042;51.090;-115.340;2023-04-01T00:27:58;4.00;;;0.60;;
74538;SDS011;66042;51.090;-115.340;2023-04-01T00:30:25;2.80;;;0.70;;
74538;SDS011;66042;51.090;-115.340;2023-04-01T00:32:53;1.30;;;0.60;;
74538;SDS011;66042;51.090;-115.340;2023-04-01T00:35:20;2.90;;;0.40;;
74538;SDS011;66042;51.090;-115.340;2023-04-01T00:37:48;2.80;;;0.60;;
74538;SDS011;66042;51.090;-115.340;2023-04-01T00:40:28;28.90;;;1.60;;
74538;SDS011;66042;51.090;-115.340;2023-04-01T00:42:58;4.70;;;1.10;;
74538;SDS011;66042;51.090;-115.340;2023-04-01T00:45:30;2.90;;;0.60;;
74538;SDS011;66042;51.090;-115.340;2023-04-01T00:48:13;2.40;;;0.70;;
74538;SDS011;66042;51.090;-115.340;2023-04-01T00:50:46;1.60;;;0.50;;
74538;SDS011;66042;51.090;-115.340;2023-04-01T00:53:19;1.50;;;0.70;;
74538;SDS011;66042;51.090;-115.340;2023-04-01T00:56:00;7.60;;;0.90;;
74538;SDS011;66042;51.090;-115.340;2023-04-01T00:58:34;19.50;;;1.00;;
74538;SDS011;66042;51.090;-115.340;2023-04-01T01:01:06;9.60;;;1.40;;
74538;SDS011;66042;51.090;-115.340;2023-04-01T01:03:34;3.30;;;1.00;;
74538;SDS011;66042;51.090;-115.340;2023-04-01T01:06:09;3.60;;;0.90;;
74538;SDS011;66042;51.090;-115.340;2023-04-01T01:12:01;8.50;;;0.90;;
74538;SDS011;66042;51.090;-115.340;2023-04-01T01:21:00;4.90;;;0.50;;
74538;SDS011;66042;51.090;-115.340;2023-04-01T01:35:51;2.70;;;0.60;;
74538;SDS011;66042;51.090;-115.340;2023-04-01T01:38:26;1.60;;;0.80;;
74538;SDS011;66042;51.090;-115.340;2023-04-01T01:40:57;2.90;;;0.60;;
74538;SDS011;66042;51.090;-115.340;2023-04-01T01:43:47;1.40;;;0.60;;
74538;SDS011;66042;51.090;-115.340;2023-04-01T01:46:20;5.20;;;0.50;;
74538;SDS011;66042;51.090;-115.340;2023-04-01T01:48:51;2.40;;;0.80;;
74538;SDS011;66042;51.090;-115.340;2023-04-01T01:51:20;3.40;;;0.90;;
74538;SDS011;66042;51.090;-115.340;2023-04-01T01:53:49;2.70;;;0.80;;
74538;SDS011;66042;51.090;-115.340;2023-04-01T01:56:18;1.70;;;0.50;;
74538;SDS011;66042;51.090;-115.340;2023-04-01T01:58:54;1.80;;;0.80;;
74538;SDS011;66042;51.090;-115.340;2023-04-01T02:01:27;2.40;;;1.20;;
74538;SDS011;66042;51.090;-115.340;2023-04-01T02:03:58;1.40;;;0.60;;
74538;SDS011;66042;51.090;-115.340;2023-04-01T02:06:28;2.40;;;0.60;;
74538;SDS011;66042;51.090;-115.340;2023-04-01T02:09:06;1.70;;;0.80;;
74538;SDS011;66042;51.090;-115.340;2023-04-01T02:11:47;2.80;;;0.70;;
74538;SDS011;66042;51.090;-115.340;2023-04-01T02:14:21;20.80;;;1.90;;
74538;SDS011;66042;51.090;-115.340;2023-04-01T02:17:16;2.80;;;1.40;;
74538;SDS011;66042;51.090;-115.340;2023-04-01T02:22:31;3.30;;;1.30;;
74538;SDS011;66042;51.090;-115.340;2023-04-01T02:25:26;10.60;;;1.70;;
74538;SDS011;66042;51.090;-115.340;2023-04-01T02:28:05;6.10;;;1.50;;
74538;SDS011;66042;51.090;-115.340;2023-04-01T02:30:35;8.20;;;2.40;;
74538;SDS011;66042;51.090;-115.340;2023-04-01T02:33:05;7.90;;;1.50;;
74538;SDS011;66042;51.090;-115.340;2023-04-01T02:35:35;4.70;;;1.30;;
74538;SDS011;66042;51.090;-115.340;2023-04-01T02:38:03;5.70;;;1.40;;
74538;SDS011;66042;51.090;-115.340;2023-04-01T02:40:51;6.80;;;1.20;;
74538;SDS011;66042;51.090;-115.340;2023-04-01T02:43:24;3.80;;;1.20;;
74538;SDS011;66042;51.090;-115.340;2023-04-01T02:45:52;4.00;;;0.90;;
74538;SDS011;66042;51.090;-115.340;2023-04-01T02:48:19;2.30;;;0.60;;
74538;SDS011;66042;51.090;-115.340;2023-04-01T02:50:46;2.70;;;1.10;;
74538;SDS011;66042;51.090;-115.340;2023-04-01T02:53:14;3.00;;;0.90;;
74538;SDS011;66042;51.090;-115.340;2023-04-01T02:55:41;1.40;;;0.80;;
74538;SDS011;66042;51.090;-115.340;2023-04-01T02:58:08;3.80;;;0.90;;
74538;SDS011;66042;51.090;-115.340;2023-04-01T03:00:36;4.00;;;0.90;;
74538;SDS011;66042;51.090;-115.340;2023-04-01T03:03:03;5.30;;;0.90;;
74538;SDS011;66042;51.090;-115.340;2023-04-01T03:05:31;7.90;;;1.00;;
74538;SDS011;66042;51.090;-115.340;2023-04-01T03:07:58;2.40;;;0.90;;
74538;SDS011;66042;51.090;-115.340;2023-04-01T03:10:25;5.50;;;1.20;;
74538;SDS011;66042;51.090;-115.340;2023-04-01T03:12:52;1.80;;;0.70;;
74538;SDS011;66042;51.090;-115.340;2023-04-01T03:15:19;3.10;;;0.60;;
74538;SDS011;66042;51.090;-115.340;2023-04-01T03:17:46;1.40;;;0.70;;
74538;SDS011;66042;51.090;-115.340;2023-04-01T03:20:15;4.10;;;1.20;;
74538;SDS011;66042;51.090;-115.340;2023-04-01T03:22:43;3.60;;;0.60;;
74538;SDS011;66042;51.090;-115.340;2023-04-01T03:25:10;2.00;;;0.80;;
74538;SDS011;66042;51.090;-115.340;2023-04-01T03:27:37;5.90;;;0.70;;
74538;SDS011;66042;51.090;-115.340;2023-04-01T03:30:06;2.60;;;0.50;;
74538;SDS011;66042;51.090;-115.340;2023-04-01T03:32:33;2.90;;;1.10;;
74538;SDS011;66042;51.090;-115.340;2023-04-01T03:35:00;3.50;;;0.70;;
74538;SDS011;66042;51.090;-115.340;2023-04-01T03:37:28;3.90;;;0.60;;
74538;SDS011;66042;51.090;-115.340;2023-04-01T03:39:55;3.10;;;0.60;;
74538;SDS011;66042;51.090;-115.340;2023-04-01T03:42:22;4.30;;;1.00;;
74538;SDS011;66042;51.090;-115.340;2023-04-01T03:44:52;4.60;;;1.00;;
74538;SDS011;66042;51.090;-115.340;2023-04-01T03:47:22;5.60;;;0.80;;
74538;SDS011;66042;51.090;-115.340;2023-04-01T03:49:49;6.40;;;1.10;;
74538;SDS011;66042;51.090;-115.340;2023-04-01T03:52:16;6.60;;;0.90;;
74538;SDS011;66042;51.090;-115.340;2023-04-01T03:54:43;4.70;;;1.10;;
74538;SDS011;66042;51.090;-115.340;2023-04-01T03:57:11;4.70;;;0.90;;
74538;SDS011;66042;51.090;-115.340;2023-04-01T03:59:38;2.10;;;0.90;;
74538;SDS011;66042;51.090;-115.340;2023-04-01T04:02:05;3.20;;;0.50;;
74538;SDS011;66042;51.090;-115.340;2023-04-01T04:04:32;1.40;;;0.70;;
74538;SDS011;66042;51.090;-115.340;2023-04-01T04:06:59;3.60;;;0.50;;
74538;SDS011;66042;51.090;-115.340;2023-04-01T04:09:26;2.30;;;0.90;;
74538;SDS011;66042;51.090;-115.340;2023-04-01T04:11:53;1.00;;;0.40;;
74538;SDS011;66042;51.090;-115.340;2023-04-01T04:14:21;1.30;;;0.70;;
74538;SDS011;66042;51.090;-115.340;2023-04-01T04:16:49;2.20;;;0.60;;
74538;SDS011;66042;51.090;-115.340;2023-04-01T04:19:16;3.90;;;0.50;;
74538;SDS011;66042;51.090;-115.340;2023-04-01T04:21:44;3.50;;;0.70;;
74538;SDS011;66042;51.090;-115.340;2023-04-01T04:24:11;5.20;;;0.60;;
74538;SDS011;66042;51.090;-115.340;2023-04-01T04:26:38;7.70;;;0.70;;
74538;SDS011;66042;51.090;-115.340;2023-04-01T04:29:05;5.40;;;0.80;;
74538;SDS011;66042;51.090;-115.340;2023-04-01T04:31:32;5.70;;;0.60;;
74538;SDS011;66042;51.090;-115.340;2023-04-01T04:34:00;1.50;;;0.80;;
74538;SDS011;66042;51.090;-115.340;2023-04-01T04:36:27;1.60;;;0.40;;
74538;SDS011;66042;51.090;-115.340;2023-04-01T04:38:54;2.50;;;0.70;;
74538;SDS011;66042;51.090;-115.340;2023-04-01T04:41:21;2.20;;;0.40;;
74538;SDS011;66042;51.090;-115.340;2023-04-01T04:43:53;1.40;;;0.60;;
74538;SDS011;66042;51.090;-115.340;2023-04-01T04:46:22;2.10;;;0.70;;
74538;SDS011;66042;51.090;-115.340;2023-04-01T04:48:49;1.30;;;0.70;;
74538;SDS011;66042;51.090;-115.340;2023-04-01T04:51:18;1.10;;;0.40;;
74538;SDS011;66042;51.090;-115.340;2023-04-01T04:53:46;1.20;;;0.60;;
74538;SDS011;66042;51.090;-115.340;2023-04-01T04:56:18;1.20;;;0.70;;
74538;SDS011;66042;51.090;-115.340;2023-04-01T04:58:46;1.70;;;0.80;;
74538;SDS011;66042;51.090;-115.340;2023-04-01T05:01:15;3.90;;;0.50;;
74538;SDS011;66042;51.090;-115.340;2023-04-01T05:03:43;1.00;;;0.50;;
74538;SDS011;66042;51.090;-115.340;2023-04-01T05:06:13;1.70;;;0.50;;
74538;SDS011;66042;51.090;-115.340;2023-04-01T05:08:42;2.80;;;0.50;;
74538;SDS011;66042;51.090;-115.340;2023-04-01T05:11:13;3.40;;;0.60;;
74538;SDS011;66042;51.090;-115.340;2023-04-01T05:13:43;1.50;;;0.50;;
74538;SDS011;66042;51.090;-115.340;2023-04-01T05:16:12;2.40;;;0.40;;
74538;SDS011;66042;51.090;-115.340;2023-04-01T05:18:41;1.40;;;0.60;;
74538;SDS011;66042;51.090;-115.340;2023-04-01T05:21:10;1.20;;;0.70;;
74538;SDS011;66042;51.090;-115.340;2023-04-01T05:23:39;1.00;;;0.50;;
74538;SDS011;66042;51.090;-115.340;2023-04-01T05:26:09;1.40;;;0.50;;
74538;SDS011;66042;51.090;-115.340;2023-04-01T05:28:40;2.20;;;0.60;;
74538;SDS011;66042;51.090;-115.340;2023-04-01T05:31:08;1.20;;;0.50;;
74538;SDS011;66042;51.090;-115.340;2023-04-01T05:33:35;1.10;;;0.50;;
74538;SDS011;66042;51.090;-115.340;2023-04-01T05:36:10;1.40;;;0.50;;
74538;SDS011;66042;51.090;-115.340;2023-04-01T05:38:39;5.60;;;0.90;;
74538;SDS011;66042;51.090;-115.340;2023-04-01T05:41:06;3.20;;;0.50;;
74538;SDS011;66042;51.090;-115.340;2023-04-01T05:43:37;2.10;;;0.80;;
74538;SDS011;66042;51.090;-115.340;2023-04-01T05:46:06;2.50;;;0.70;;
74538;SDS011;66042;51.090;-115.340;2023-04-01T05:48:34;1.30;;;0.60;;
74538;SDS011;66042;51.090;-115.340;2023-04-01T05:51:02;1.60;;;0.50;;
74538;SDS011;66042;51.090;-115.340;2023-04-01T05:53:30;2.00;;;0.50;;
74538;SDS011;66042;51.090;-115.340;2023-04-01T05:56:02;2.90;;;0.60;;
74538;SDS011;66042;51.090;-115.340;2023-04-01T05:58:30;2.20;;;0.70;;
74538;SDS011;66042;51.090;-115.340;2023-04-01T06:01:08;3.90;;;0.70;;
74538;SDS011;66042;51.090;-115.340;2023-04-01T06:03:37;1.50;;;0.70;;
74538;SDS011;66042;51.090;-115.340;2023-04-01T06:06:04;1.10;;;0.50;;
74538;SDS011;66042;51.090;-115.340;2023-04-01T06:08:41;2.80;;;0.60;;
74538;SDS011;66042;51.090;-115.340;2023-04-01T06:19:44;3.60;;;1.00;;
74538;SDS011;66042;51.090;-115.340;2023-04-01T06:28:29;13.30;;;1.50;;
74538;SDS011;66042;51.090;-115.340;2023-04-01T06:31:10;7.80;;;0.80;;
74538;SDS011;66042;51.090;-115.340;2023-04-01T06:34:28;8.20;;;0.60;;
74538;SDS011;66042;51.090;-115.340;2023-04-01T06:48:37;1.90;;;0.60;;
74538;SDS011;66042;51.090;-115.340;2023-04-01T06:56:50;1.10;;;0.60;;
74538;SDS011;66042;51.090;-115.340;2023-04-01T06:59:26;0.90;;;0.50;;
74538;SDS011;66042;51.090;-115.340;2023-04-01T07:04:58;1.40;;;0.50;;
74538;SDS011;66042;51.090;-115.340;2023-04-01T07:07:55;1.40;;;0.40;;
74538;SDS011;66042;51.090;-115.340;2023-04-01T07:10:36;1.00;;;0.50;;
74538;SDS011;66042;51.090;-115.340;2023-04-01T07:13:22;0.80;;;0.40;;
74538;SDS011;66042;51.090;-115.340;2023-04-01T07:19:08;1.00;;;0.50;;
74538;SDS011;66042;51.090;-115.340;2023-04-01T07:21:49;0.80;;;0.50;;
74538;SDS011;66042;51.090;-115.340;2023-04-01T07:24:36;0.80;;;0.40;;
74538;SDS011;66042;51.090;-115.340;2023-04-01T07:27:10;0.90;;;0.40;;
74538;SDS011;66042;51.090;-115.340;2023-04-01T07:29:40;2.00;;;0.30;;
74538;SDS011;66042;51.090;-115.340;2023-04-01T07:41:57;1.00;;;0.50;;
74538;SDS011;66042;51.090;-115.340;2023-04-01T07:51:01;0.80;;;0.40;;
74538;SDS011;66042;51.090;-115.340;2023-04-01T07:54:09;0.80;;;0.40;;
74538;SDS011;66042;51.090;-115.340;2023-04-01T07:59:47;2.60;;;0.60;;
74538;SDS011;66042;51.090;-115.340;2023-04-01T08:02:39;1.10;;;0.50;;
74538;SDS011;66042;51.090;-115.340;2023-04-01T08:05:27;1.80;;;0.50;;
74538;SDS011;66042;51.090;-115.340;2023-04-01T08:17:06;3.50;;;0.50;;
74538;SDS011;66042;51.090;-115.340;2023-04-01T08:23:31;0.90;;;0.50;;
74538;SDS011;66042;51.090;-115.340;2023-04-01T08:28:58;1.10;;;0.40;;
74538;SDS011;66042;51.090;-115.340;2023-04-01T08:34:40;1.00;;;0.60;;
74538;SDS011;66042;51.090;-115.340;2023-04-01T08:37:15;1.30;;;0.50;;
74538;SDS011;66042;51.090;-115.340;2023-04-01T08:39:48;0.90;;;0.60;;
74538;SDS011;66042;51.090;-115.340;2023-04-01T08:42:31;0.90;;;0.50;;
74538;SDS011;66042;51.090;-115.340;2023-04-01T08:50:58;1.00;;;0.50;;
74538;SDS011;66042;51.090;-115.340;2023-04-01T08:57:13;0.60;;;0.30;;
74538;SDS011;66042;51.090;-115.340;2023-04-01T08:59:56;1.00;;;0.30;;
74538;SDS011;66042;51.090;-115.340;2023-04-01T09:02:42;0.90;;;0.50;;
74538;SDS011;66042;51.090;-115.340;2023-04-01T09:11:12;1.40;;;0.60;;
74538;SDS011;66042;51.090;-115.340;2023-04-01T09:17:29;1.90;;;0.40;;
74538;SDS011;66042;51.090;-115.340;2023-04-01T09:23:12;2.90;;;0.40;;
74538;SDS011;66042;51.090;-115.340;2023-04-01T09:37:51;0.90;;;0.40;;
74538;SDS011;66042;51.090;-115.340;2023-04-01T09:46:26;1.10;;;0.40;;
74538;SDS011;66042;51.090;-115.340;2023-04-01T09:49:17;0.90;;;0.40;;
74538;SDS011;66042;51.090;-115.340;2023-04-01T09:55:05;0.60;;;0.30;;
74538;SDS011;66042;51.090;-115.340;2023-04-01T09:58:18;0.90;;;0.50;;
74538;SDS011;66042;51.090;-115.340;2023-04-01T10:12:59;0.70;;;0.30;;
74538;SDS011;66042;51.090;-115.340;2023-04-01T10:16:15;1.40;;;0.50;;
74538;SDS011;66042;51.090;-115.340;2023-04-01T10:22:04;1.20;;;0.50;;
74538;SDS011;66042;51.090;-115.340;2023-04-01T10:24:59;0.80;;;0.30;;
74538;SDS011;66042;51.090;-115.340;2023-04-01T10:30:53;0.90;;;0.40;;
74538;SDS011;66042;51.090;-115.340;2023-04-01T10:36:58;0.80;;;0.40;;
74538;SDS011;66042;51.090;-115.340;2023-04-01T10:48:47;1.00;;;0.40;;
74538;SDS011;66042;51.090;-115.340;2023-04-01T10:55:16;0.70;;;0.40;;
74538;SDS011;66042;51.090;-115.340;2023-04-01T11:04:10;0.80;;;0.50;;
74538;SDS011;66042;51.090;-115.340;2023-04-01T11:30:48;1.60;;;0.60;;
74538;SDS011;66042;51.090;-115.340;2023-04-01T11:33:57;0.90;;;0.50;;
74538;SDS011;66042;51.090;-115.340;2023-04-01T11:42:49;0.90;;;0.40;;
74538;SDS011;66042;51.090;-115.340;2023-04-01T11:45:44;5.20;;;0.80;;
74538;SDS011;66042;51.090;-115.340;2023-04-01T11:48:37;2.00;;;0.50;;
74538;SDS011;66042;51.090;-115.340;2023-04-01T12:06:13;0.90;;;0.50;;
74538;SDS011;66042;51.090;-115.340;2023-04-01T12:12:36;1.60;;;0.60;;
74538;SDS011;66042;51.090;-115.340;2023-04-01T12:15:36;2.00;;;0.60;;
74538;SDS011;66042;51.090;-115.340;2023-04-01T12:18:24;0.80;;;0.40;;
74538;SDS011;66042;51.090;-115.340;2023-04-01T12:21:05;1.80;;;0.50;;
74538;SDS011;66042;51.090;-115.340;2023-04-01T12:27:09;1.00;;;0.50;;
74538;SDS011;66042;51.090;-115.340;2023-04-01T12:30:21;1.60;;;0.60;;
74538;SDS011;66042;51.090;-115.340;2023-04-01T12:33:36;1.00;;;0.40;;
74538;SDS011;66042;51.090;-115.340;2023-04-01T12:36:40;1.20;;;0.30;;
74538;SDS011;66042;51.090;-115.340;2023-04-01T12:55:51;4.80;;;0.50;;
74538;SDS011;66042;51.090;-115.340;2023-04-01T12:58:36;2.70;;;0.70;;
74538;SDS011;66042;51.090;-115.340;2023-04-01T13:07:19;6.10;;;0.40;;
74538;SDS011;66042;51.090;-115.340;2023-04-01T13:13:11;8.60;;;0.60;;
74538;SDS011;66042;51.090;-115.340;2023-04-01T13:16:22;5.10;;;0.60;;
74538;SDS011;66042;51.090;-115.340;2023-04-01T13:25:16;3.50;;;0.70;;
74538;SDS011;66042;51.090;-115.340;2023-04-01T13:28:45;4.80;;;0.40;;
74538;SDS011;66042;51.090;-115.340;2023-04-01T13:49:35;5.10;;;0.70;;
74538;SDS011;66042;51.090;-115.340;2023-04-01T13:58:38;7.40;;;1.00;;
74538;SDS011;66042;51.090;-115.340;2023-04-01T14:01:14;8.90;;;1.00;;
74538;SDS011;66042;51.090;-115.340;2023-04-01T14:04:47;4.80;;;0.90;;
74538;SDS011;66042;51.090;-115.340;2023-04-01T14:07:37;6.80;;;0.90;;
74538;SDS011;66042;51.090;-115.340;2023-04-01T14:10:42;3.00;;;1.00;;
74538;SDS011;66042;51.090;-115.340;2023-04-01T14:16:27;5.20;;;0.70;;
74538;SDS011;66042;51.090;-115.340;2023-04-01T14:25:12;1.90;;;0.60;;
74538;SDS011;66042;51.090;-115.340;2023-04-01T14:31:31;1.80;;;0.60;;
74538;SDS011;66042;51.090;-115.340;2023-04-01T14:40:33;5.50;;;1.40;;
74538;SDS011;66042;51.090;-115.340;2023-04-01T14:52:38;12.60;;;1.10;;
74538;SDS011;66042;51.090;-115.340;2023-04-01T14:55:44;22.10;;;1.40;;
74538;SDS011;66042;51.090;-115.340;2023-04-01T14:58:18;13.50;;;1.50;;
74538;SDS011;66042;51.090;-115.340;2023-04-01T15:01:07;8.20;;;1.10;;
74538;SDS011;66042;51.090;-115.340;2023-04-01T15:10:44;13.80;;;1.40;;
74538;SDS011;66042;51.090;-115.340;2023-04-01T15:22:18;10.10;;;1.00;;
74538;SDS011;66042;51.090;-115.340;2023-04-01T15:33:36;5.60;;;0.80;;
74538;SDS011;66042;51.090;-115.340;2023-04-01T15:36:28;3.90;;;0.30;;
74538;SDS011;66042;51.090;-115.340;2023-04-01T15:39:14;1.90;;;0.60;;
74538;SDS011;66042;51.090;-115.340;2023-04-01T15:53:00;1.80;;;0.40;;
74538;SDS011;66042;51.090;-115.340;2023-04-01T16:07:10;3.90;;;0.60;;
74538;SDS011;66042;51.090;-115.340;2023-04-01T16:29:49;2.10;;;0.60;;
74538;SDS011;66042;51.090;-115.340;2023-04-01T16:49:29;2.10;;;0.40;;
74538;SDS011;66042;51.090;-115.340;2023-04-01T16:52:13;1.10;;;0.50;;
74538;SDS011;66042;51.090;-115.340;2023-04-01T16:57:46;2.20;;;0.50;;
74538;SDS011;66042;51.090;-115.340;2023-04-01T17:00:36;0.90;;;0.30;;
74538;SDS011;66042;51.090;-115.340;2023-04-01T17:03:38;3.60;;;0.40;;
74538;SDS011;66042;51.090;-115.340;2023-04-01T17:09:19;0.80;;;0.30;;
74538;SDS011;66042;51.090;-115.340;2023-04-01T17:12:17;3.80;;;0.40;;
74538;SDS011;66042;51.090;-115.340;2023-04-01T17:15:13;1.50;;;0.40;;
74538;SDS011;66042;51.090;-115.340;2023-04-01T17:17:45;0.50;;;0.30;;
74538;SDS011;66042;51.090;-115.340;2023-04-01T17:29:22;1.70;;;0.30;;
74538;SDS011;66042;51.090;-115.340;2023-04-01T17:32:02;0.90;;;0.30;;
74538;SDS011;66042;51.090;-115.340;2023-04-01T17:34:46;0.90;;;0.30;;
74538;SDS011;66042;51.090;-115.340;2023-04-01T17:53:43;1.10;;;0.60;;
74538;SDS011;66042;51.090;-115.340;2023-04-01T18:05:21;9.60;;;0.50;;
74538;SDS011;66042;51.090;-115.340;2023-04-01T18:13:45;9.60;;;0.30;;
74538;SDS011;66042;51.090;-115.340;2023-04-01T18:19:59;0.60;;;0.30;;
74538;SDS011;66042;51.090;-115.340;2023-04-01T18:26:23;0.70;;;0.40;;
74538;SDS011;66042;51.090;-115.340;2023-04-01T18:29:34;1.10;;;0.20;;
74538;SDS011;66042;51.090;-115.340;2023-04-01T18:32:23;3.60;;;0.50;;
74538;SDS011;66042;51.090;-115.340;2023-04-01T18:38:35;20.30;;;1.00;;
74538;SDS011;66042;51.090;-115.340;2023-04-01T18:41:22;7.00;;;0.50;;
74538;SDS011;66042;51.090;-115.340;2023-04-01T18:55:43;4.40;;;0.30;;
74538;SDS011;66042;51.090;-115.340;2023-04-01T19:05:19;1.20;;;0.40;;
74538;SDS011;66042;51.090;-115.340;2023-04-01T19:17:00;11.40;;;0.50;;
74538;SDS011;66042;51.090;-115.340;2023-04-01T19:25:59;1.00;;;0.40;;
74538;SDS011;66042;51.090;-115.340;2023-04-01T19:34:42;5.50;;;0.30;;
74538;SDS011;66042;51.090;-115.340;2023-04-01T19:37:31;4.50;;;0.40;;
74538;SDS011;66042;51.090;-115.340;2023-04-01T19:46:28;4.60;;;0.40;;
74538;SDS011;66042;51.090;-115.340;2023-04-01T19:55:21;2.60;;;0.30;;
74538;SDS011;66042;51.090;-115.340;2023-04-01T20:01:04;0.60;;;0.30;;
74538;SDS011;66042;51.090;-115.340;2023-04-01T20:03:55;3.30;;;0.30;;
74538;SDS011;66042;51.090;-115.340;2023-04-01T20:18:19;2.90;;;0.30;;
74538;SDS011;66042;51.090;-115.340;2023-04-01T20:23:51;2.20;;;0.40;;
74538;SDS011;66042;51.090;-115.340;2023-04-01T20:26:43;1.70;;;0.30;;
74538;SDS011;66042;51.090;-115.340;2023-04-01T20:32:45;1.70;;;0.20;;
74538;SDS011;66042;51.090;-115.340;2023-04-01T20:42:02;0.90;;;0.40;;
74538;SDS011;66042;51.090;-115.340;2023-04-01T20:50:31;4.40;;;0.70;;
74538;SDS011;66042;51.090;-115.340;2023-04-01T20:53:40;0.90;;;0.50;;
74538;SDS011;66042;51.090;-115.340;2023-04-01T20:56:58;1.00;;;0.50;;
74538;SDS011;66042;51.090;-115.340;2023-04-01T21:07:58;1.50;;;0.40;;
74538;SDS011;66042;51.090;-115.340;2023-04-01T21:10:50;4.00;;;0.50;;
74538;SDS011;66042;51.090;-115.340;2023-04-01T21:16:23;5.30;;;1.50;;
74538;SDS011;66042;51.090;-115.340;2023-04-01T21:19:03;0.90;;;0.40;;
74538;SDS011;66042;51.090;-115.340;2023-04-01T21:27:36;1.10;;;0.70;;
74538;SDS011;66042;51.090;-115.340;2023-04-01T21:31:18;1.10;;;0.40;;
74538;SDS011;66042;51.090;-115.340;2023-04-01T21:49:11;2.10;;;0.50;;
74538;SDS011;66042;51.090;-115.340;2023-04-01T22:11:48;0.50;;;0.20;;
74538;SDS011;66042;51.090;-115.340;2023-04-01T22:26:12;0.90;;;0.30;;
74538;SDS011;66042;51.090;-115.340;2023-04-01T22:43:55;1.00;;;0.40;;
74538;SDS011;66042;51.090;-115.340;2023-04-01T22:46:56;1.60;;;0.50;;
74538;SDS011;66042;51.090;-115.340;2023-04-01T22:49:50;2.70;;;0.50;;
74538;SDS011;66042;51.090;-115.340;2023-04-01T22:52:45;1.40;;;0.30;;
74538;SDS011;66042;51.090;-115.340;2023-04-01T22:55:22;1.80;;;0.30;;
74538;SDS011;66042;51.090;-115.340;2023-04-01T22:58:09;6.40;;;0.30;;
74538;SDS011;66042;51.090;-115.340;2023-04-01T23:00:45;0.90;;;0.30;;
74538;SDS011;66042;51.090;-115.340;2023-04-01T23:03:30;6.50;;;0.60;;
74538;SDS011;66042;51.090;-115.340;2023-04-01T23:06:01;0.60;;;0.30;;
74538;SDS011;66042;51.090;-115.340;2023-04-01T23:09:00;3.10;;;0.30;;
74538;SDS011;66042;51.090;-115.340;2023-04-01T23:11:37;1.70;;;0.40;;
74538;SDS011;66042;51.090;-115.340;2023-04-01T23:19:36;1.10;;;0.30;;
74538;SDS011;66042;51.090;-115.340;2023-04-01T23:25:04;0.70;;;0.30;;
74538;SDS011;66042;51.090;-115.340;2023-04-01T23:27:50;0.80;;;0.50;;
74538;SDS011;66042;51.090;-115.340;2023-04-01T23:33:26;0.90;;;0.40;;
74538;SDS011;66042;51.090;-115.340;2023-04-01T23:36:02;0.90;;;0.40;;
74538;SDS011;66042;51.090;-115.340;2023-04-01T23:38:41;1.70;;;0.30;;
74538;SDS011;66042;51.090;-115.340;2023-04-01T23:41:28;1.20;;;0.30;;
74538;SDS011;66042;51.090;-115.340;2023-04-01T23:43:59;0.80;;;0.30;;
74538;SDS011;66042;51.090;-115.340;2023-04-01T23:46:31;1.10;;;0.30;;
74538;SDS011;66042;51.090;-115.340;2023-04-01T23:49:02;1.40;;;0.50;;
74538;SDS011;66042;51.090;-115.340;2023-04-01T23:51:46;1.00;;;0.40;;
74538;SDS011;66042;51.090;-115.340;2023-04-01T23:54:26;0.60;;;0.30;;
74538;SDS011;66042;51.090;-115.340;2023-04-01T23:56:57;1.00;;;0.50;;
74538;SDS011;66042;51.090;-115.340;2023-04-01T23:59:30;1.00;;;0.50;;
